Time,TemperatureF,DewpointF,PressureIn,WindDirection,WindDirectionDegrees,WindSpeedMPH,WindSpeedGustMPH,Humidity,HourlyPrecipIn,Conditions,Clouds,dailyrainin,SoftwareType,DateUTC
2013-02-24 00:01:00,19.0,12.4,29.70,North,0,0.0,0.0,75,0.00,,SKC,0.00,VWS V13.00,2013-02-24 07:01:00,
2013-02-24 00:06:00,19.2,12.9,29.70,North,0,0.0,0.0,76,0.00,,SKC,0.00,VWS V13.00,2013-02-24 07:06:00,
2013-02-24 00:11:00,19.4,13.1,29.70,North,0,0.0,0.0,76,0.00,,SKC,0.00,VWS V13.00,2013-02-24 07:11:00,
2013-02-24 00:16:00,19.6,13.3,29.70,North,0,0.0,0.0,76,0.00,,SKC,0.00,VWS V13.00,2013-02-24 07:16:00,
2013-02-24 00:22:00,19.4,13.1,29.70,North,0,0.0,0.0,76,0.00,,SKC,0.00,VWS V13.00,2013-02-24 07:22:00,
2013-02-24 00:27:00,19.0,12.7,29.70,North,0,0.0,0.0,76,0.00,,SKC,0.00,VWS V13.00,2013-02-24 07:27:00,
2013-02-24 00:32:00,19.2,12.6,29.70,North,0,0.0,0.0,75,0.00,,SKC,0.00,VWS V13.00,2013-02-24 07:32:00,
2013-02-24 00:37:00,19.0,12.4,29.70,North,0,0.0,0.0,75,0.00,,SKC,0.00,VWS V13.00,2013-02-24 07:37:00,
2013-02-24 00:42:00,19.0,12.4,29.70,North,0,0.0,0.0,75,0.00,,SKC,0.00,VWS V13.00,2013-02-24 07:42:00,
2013-02-24 00:47:00,19.0,12.4,29.70,North,0,0.0,0.0,75,0.00,,SKC,0.00,VWS V13.00,2013-02-24 07:47:00,
2013-02-24 00:52:00,18.9,12.3,29.70,North,0,0.0,0.0,75,0.00,,SKC,0.00,VWS V13.00,2013-02-24 07:52:00,
2013-02-24 00:57:00,18.7,11.8,29.70,North,0,0.0,0.0,74,0.00,,SKC,0.00,VWS V13.00,2013-02-24 07:57:00,
2013-02-24 01:02:00,18.9,12.0,29.70,North,0,0.0,0.0,74,0.00,,SKC,0.00,VWS V13.00,2013-02-24 08:02:00,
2013-02-24 01:07:00,18.7,11.8,29.70,North,0,0.0,0.0,74,0.00,,SKC,0.00,VWS V13.00,2013-02-24 08:07:00,
2013-02-24 01:12:00,18.7,11.5,29.70,North,0,0.0,0.0,73,0.00,,SKC,0.00,VWS V13.00,2013-02-24 08:12:00,
2013-02-24 01:17:00,18.9,12.0,29.70,North,0,0.0,0.0,74,0.00,,SKC,0.00,VWS V13.00,2013-02-24 08:17:00,
2013-02-24 01:22:00,18.7,11.5,29.70,North,0,0.0,0.0,73,0.00,,SKC,0.00,VWS V13.00,2013-02-24 08:22:00,
2013-02-24 01:27:00,18.7,11.8,29.70,North,0,0.0,0.0,74,0.00,,SKC,0.00,VWS V13.00,2013-02-24 08:27:00,
2013-02-24 01:32:00,18.5,11.3,29.70,North,0,0.0,0.0,73,0.00,,SKC,0.00,VWS V13.00,2013-02-24 08:32:00,
2013-02-24 01:37:00,18.5,11.6,29.70,North,0,0.0,0.0,74,0.00,,SKC,0.00,VWS V13.00,2013-02-24 08:37:00,
2013-02-24 01:42:00,18.5,11.6,29.70,North,0,0.0,0.0,74,0.00,,SKC,0.00,VWS V13.00,2013-02-24 08:42:00,
2013-02-24 01:47:00,18.3,11.1,29.70,North,0,0.0,0.0,73,0.00,,SKC,0.00,VWS V13.00,2013-02-24 08:47:00,
2013-02-24 01:52:00,18.1,11.0,29.70,North,0,0.0,0.0,73,0.00,,SKC,0.00,VWS V13.00,2013-02-24 08:52:00,
2013-02-24 01:57:00,18.1,11.0,29.70,North,0,0.0,0.0,73,0.00,,SKC,0.00,VWS V13.00,2013-02-24 08:57:00,
2013-02-24 02:03:00,18.1,11.0,29.70,North,0,0.0,0.0,73,0.00,,SKC,0.00,VWS V13.00,2013-02-24 09:03:00,
2013-02-24 02:08:00,18.0,10.8,29.70,North,0,0.0,0.0,73,0.00,,SKC,0.00,VWS V13.00,2013-02-24 09:08:00,
2013-02-24 02:13:00,18.0,10.8,29.70,North,0,0.0,0.0,73,0.00,,SKC,0.00,VWS V13.00,2013-02-24 09:13:00,
2013-02-24 02:18:00,18.1,11.0,29.70,North,0,0.0,0.0,73,0.00,,SKC,0.00,VWS V13.00,2013-02-24 09:18:00,
2013-02-24 02:23:00,18.1,11.0,29.70,North,0,0.0,0.0,73,0.00,,SKC,0.00,VWS V13.00,2013-02-24 09:23:00,
2013-02-24 02:28:00,18.1,11.0,29.70,North,0,0.0,0.0,73,0.00,,SKC,0.00,VWS V13.00,2013-02-24 09:28:00,
2013-02-24 02:33:00,18.3,11.1,29.70,North,0,0.0,0.0,73,0.00,,SKC,0.00,VWS V13.00,2013-02-24 09:33:00,
2013-02-24 02:38:00,18.5,11.3,29.70,North,0,0.0,0.0,73,0.00,,SKC,0.00,VWS V13.00,2013-02-24 09:38:00,
2013-02-24 02:43:00,18.5,11.3,29.70,North,0,0.0,0.0,73,0.00,,SKC,0.00,VWS V13.00,2013-02-24 09:43:00,
2013-02-24 02:48:00,18.3,11.1,29.70,North,0,0.0,0.0,73,0.00,,SKC,0.00,VWS V13.00,2013-02-24 09:48:00,
2013-02-24 02:53:00,18.3,10.8,29.70,North,0,0.0,0.0,72,0.00,,SKC,0.00,VWS V13.00,2013-02-24 09:53:00,
2013-02-24 02:58:00,18.1,10.6,29.70,North,0,0.0,0.0,72,0.00,,SKC,0.00,VWS V13.00,2013-02-24 09:58:00,
2013-02-24 03:03:00,18.1,10.6,29.70,North,0,0.0,0.0,72,0.00,,SKC,0.00,VWS V13.00,2013-02-24 10:03:00,
2013-02-24 03:08:00,18.3,10.8,29.70,North,0,0.0,0.0,72,0.00,,SKC,0.00,VWS V13.00,2013-02-24 10:08:00,
2013-02-24 03:13:00,18.3,10.8,29.70,North,0,0.0,0.0,72,0.00,,SKC,0.00,VWS V13.00,2013-02-24 10:13:00,
2013-02-24 03:18:00,18.3,10.8,29.70,North,0,0.0,0.0,72,0.00,,SKC,0.00,VWS V13.00,2013-02-24 10:18:00,
2013-02-24 03:23:00,18.3,10.8,29.70,North,0,0.0,0.0,72,0.00,,SKC,0.00,VWS V13.00,2013-02-24 10:23:00,
2013-02-24 03:28:00,18.3,10.8,29.70,North,0,0.0,0.0,72,0.00,,SKC,0.00,VWS V13.00,2013-02-24 10:28:00,
2013-02-24 03:33:00,18.3,10.8,29.70,North,0,0.0,0.0,72,0.00,,SKC,0.00,VWS V13.00,2013-02-24 10:33:00,
2013-02-24 03:38:00,18.3,10.8,29.70,North,0,0.0,0.0,72,0.00,,SKC,0.00,VWS V13.00,2013-02-24 10:38:00,
2013-02-24 03:43:00,18.3,10.8,29.70,North,0,0.0,0.0,72,0.00,,SKC,0.00,VWS V13.00,2013-02-24 10:43:00,
2013-02-24 03:48:00,18.1,10.3,29.70,North,0,0.0,0.0,71,0.00,,SKC,0.00,VWS V13.00,2013-02-24 10:48:00,
2013-02-24 03:53:00,18.1,10.3,29.70,North,0,0.0,0.0,71,0.00,,SKC,0.00,VWS V13.00,2013-02-24 10:53:00,
2013-02-24 03:58:00,18.1,10.3,29.70,North,0,0.0,0.0,71,0.00,,SKC,0.00,VWS V13.00,2013-02-24 10:58:00,
2013-02-24 04:03:00,18.1,10.6,29.70,North,0,0.0,0.0,72,0.00,,SKC,0.00,VWS V13.00,2013-02-24 11:03:00,
2013-02-24 04:08:00,18.1,10.3,29.70,North,0,0.0,0.0,71,0.00,,SKC,0.00,VWS V13.00,2013-02-24 11:08:00,
2013-02-24 04:13:00,18.1,10.3,29.70,North,0,0.0,0.0,71,0.00,,SKC,0.00,VWS V13.00,2013-02-24 11:13:00,
2013-02-24 04:19:00,18.1,10.3,29.70,North,0,0.0,0.0,71,0.00,,SKC,0.00,VWS V13.00,2013-02-24 11:19:00,
2013-02-24 04:24:00,18.1,10.3,29.70,North,0,0.0,0.0,71,0.00,,SKC,0.00,VWS V13.00,2013-02-24 11:24:00,
2013-02-24 04:29:00,18.1,10.3,29.70,North,0,0.0,0.0,71,0.00,,SKC,0.00,VWS V13.00,2013-02-24 11:29:00,
2013-02-24 04:34:00,18.1,10.3,29.70,North,0,0.0,0.0,71,0.00,,SKC,0.00,VWS V13.00,2013-02-24 11:34:00,
2013-02-24 04:39:00,18.0,10.2,29.70,North,0,0.0,0.0,71,0.00,,SKC,0.00,VWS V13.00,2013-02-24 11:39:00,
2013-02-24 04:44:00,18.0,10.2,29.73,North,0,0.0,0.0,71,0.00,,SKC,0.00,VWS V13.00,2013-02-24 11:44:00,
2013-02-24 04:49:00,18.1,10.3,29.73,North,0,0.0,0.0,71,0.00,,SKC,0.00,VWS V13.00,2013-02-24 11:49:00,
2013-02-24 04:54:00,18.1,10.3,29.73,North,0,0.0,0.0,71,0.00,,SKC,0.00,VWS V13.00,2013-02-24 11:54:00,
2013-02-24 04:59:00,18.3,10.5,29.73,North,0,0.0,0.0,71,0.00,,SKC,0.00,VWS V13.00,2013-02-24 11:59:00,
2013-02-24 05:04:00,18.3,10.5,29.73,North,0,0.0,0.0,71,0.00,,SKC,0.00,VWS V13.00,2013-02-24 12:04:00,
2013-02-24 05:09:00,18.3,10.5,29.73,North,0,0.0,0.0,71,0.00,,SKC,0.00,VWS V13.00,2013-02-24 12:09:00,
2013-02-24 05:14:00,18.5,10.7,29.73,North,0,0.0,0.0,71,0.00,,SKC,0.00,VWS V13.00,2013-02-24 12:14:00,
2013-02-24 05:19:00,18.7,10.9,29.73,North,0,0.0,0.0,71,0.00,,SKC,0.00,VWS V13.00,2013-02-24 12:19:00,
2013-02-24 05:24:00,18.7,10.9,29.73,North,0,0.0,0.0,71,0.00,,SKC,0.00,VWS V13.00,2013-02-24 12:24:00,
2013-02-24 05:29:00,18.9,11.0,29.73,North,0,0.0,0.0,71,0.00,,SKC,0.00,VWS V13.00,2013-02-24 12:29:00,
2013-02-24 05:34:00,19.0,11.2,29.73,North,0,0.0,0.0,71,0.00,,SKC,0.00,VWS V13.00,2013-02-24 12:34:00,
2013-02-24 05:39:00,19.0,11.2,29.73,North,0,0.0,0.0,71,0.00,,SKC,0.00,VWS V13.00,2013-02-24 12:39:00,
2013-02-24 05:44:00,19.2,11.4,29.73,North,0,0.0,0.0,71,0.00,,SKC,0.00,VWS V13.00,2013-02-24 12:44:00,
2013-02-24 05:49:00,19.0,11.2,29.73,North,0,0.0,0.0,71,0.00,,SKC,0.00,VWS V13.00,2013-02-24 12:49:00,
2013-02-24 05:54:00,18.9,11.0,29.73,North,0,0.0,0.0,71,0.00,,SKC,0.00,VWS V13.00,2013-02-24 12:54:00,
2013-02-24 05:59:00,18.9,10.7,29.76,North,0,0.0,0.0,70,0.00,,SKC,0.00,VWS V13.00,2013-02-24 12:59:00,
2013-02-24 06:04:00,19.0,10.9,29.76,North,0,0.0,0.0,70,0.00,,SKC,0.00,VWS V13.00,2013-02-24 13:04:00,
2013-02-24 06:09:00,19.2,11.4,29.76,North,0,0.0,0.0,71,0.00,,SKC,0.00,VWS V13.00,2013-02-24 13:09:00,
2013-02-24 06:15:00,19.4,11.2,29.76,North,0,0.0,0.0,70,0.00,,SKC,0.00,VWS V13.00,2013-02-24 13:15:00,
2013-02-24 06:20:00,19.6,11.4,29.76,North,0,0.0,0.0,70,0.00,,SKC,0.00,VWS V13.00,2013-02-24 13:20:00,
2013-02-24 06:25:00,19.8,11.2,29.76,North,0,0.0,0.0,69,0.00,,SKC,0.00,VWS V13.00,2013-02-24 13:25:00,
2013-02-24 06:30:00,19.8,11.2,29.76,North,0,0.0,0.0,69,0.00,,SKC,0.00,VWS V13.00,2013-02-24 13:30:00,
2013-02-24 06:35:00,19.9,11.1,29.76,North,0,0.0,0.0,68,0.00,,SKC,0.00,VWS V13.00,2013-02-24 13:35:00,
2013-02-24 06:40:00,20.1,11.3,29.76,North,0,0.0,0.0,68,0.00,,SKC,0.00,VWS V13.00,2013-02-24 13:40:00,
2013-02-24 06:45:00,20.1,10.9,29.76,North,0,0.0,0.0,67,0.00,,SKC,0.00,VWS V13.00,2013-02-24 13:45:00,
2013-02-24 06:50:00,19.9,10.4,29.76,North,0,0.0,0.0,66,0.00,,SKC,0.00,VWS V13.00,2013-02-24 13:50:00,
2013-02-24 06:55:00,19.8,9.9,29.76,North,0,0.0,0.0,65,0.00,,SKC,0.00,VWS V13.00,2013-02-24 13:55:00,
2013-02-24 07:00:00,19.6,9.4,29.76,North,0,0.0,0.0,64,0.00,,SKC,0.00,VWS V13.00,2013-02-24 14:00:00,
2013-02-24 07:05:00,19.2,9.1,29.76,North,0,0.0,0.0,64,0.00,,SKC,0.00,VWS V13.00,2013-02-24 14:05:00,
2013-02-24 07:10:00,19.0,8.5,29.76,North,0,0.0,0.0,63,0.00,,SKC,0.00,VWS V13.00,2013-02-24 14:10:00,
2013-02-24 07:15:00,18.7,8.2,29.76,North,0,0.0,0.0,63,0.00,,SKC,0.00,VWS V13.00,2013-02-24 14:15:00,
2013-02-24 07:20:00,18.7,8.5,29.76,North,0,0.0,0.0,64,0.00,,SKC,0.00,VWS V13.00,2013-02-24 14:20:00,
2013-02-24 07:25:00,18.7,8.5,29.76,North,0,0.0,0.0,64,0.00,,SKC,0.00,VWS V13.00,2013-02-24 14:25:00,
2013-02-24 07:30:00,18.7,8.5,29.76,North,0,0.0,0.0,64,0.00,,SKC,0.00,VWS V13.00,2013-02-24 14:30:00,
2013-02-24 07:35:00,18.7,8.9,29.76,North,0,0.0,0.0,65,0.00,,SKC,0.00,VWS V13.00,2013-02-24 14:35:00,
2013-02-24 07:40:00,18.7,8.9,29.76,North,0,0.0,0.0,65,0.00,,SKC,0.00,VWS V13.00,2013-02-24 14:40:00,
2013-02-24 07:45:00,18.7,8.9,29.79,North,0,0.0,0.0,65,0.00,,SKC,0.00,VWS V13.00,2013-02-24 14:45:00,
2013-02-24 07:50:00,18.9,9.1,29.79,North,0,0.0,0.0,65,0.00,,SKC,0.00,VWS V13.00,2013-02-24 14:50:00,
2013-02-24 07:55:00,19.0,9.6,29.79,North,0,0.0,0.0,66,0.00,,SKC,0.00,VWS V13.00,2013-02-24 14:55:00,
2013-02-24 08:00:00,19.0,9.6,29.79,North,0,0.0,0.0,66,0.00,,SKC,0.00,VWS V13.00,2013-02-24 15:00:00,
2013-02-24 08:05:00,19.0,9.6,29.79,North,0,0.0,0.0,66,0.00,,SKC,0.00,VWS V13.00,2013-02-24 15:05:00,
2013-02-24 08:10:00,19.4,9.9,29.79,North,0,0.0,0.0,66,0.00,,SKC,0.00,VWS V13.00,2013-02-24 15:10:00,
2013-02-24 08:16:00,19.6,10.1,29.79,North,0,0.0,0.0,66,0.00,,SKC,0.00,VWS V13.00,2013-02-24 15:16:00,
2013-02-24 08:21:00,19.9,10.1,29.79,North,0,0.0,0.0,65,0.00,,SKC,0.00,VWS V13.00,2013-02-24 15:21:00,
2013-02-24 08:26:00,20.1,10.3,29.79,North,0,0.0,0.0,65,0.00,,SKC,0.00,VWS V13.00,2013-02-24 15:26:00,
2013-02-24 08:31:00,20.3,10.1,29.79,North,0,0.0,0.0,64,0.00,,SKC,0.00,VWS V13.00,2013-02-24 15:31:00,
2013-02-24 08:36:00,20.7,10.4,29.79,North,0,0.0,0.0,64,0.00,,SKC,0.00,VWS V13.00,2013-02-24 15:36:00,
2013-02-24 08:41:00,21.0,10.8,29.79,North,0,0.0,0.0,64,0.00,,SKC,0.00,VWS V13.00,2013-02-24 15:41:00,
2013-02-24 08:46:00,20.5,8.8,29.79,North,0,0.0,0.0,60,0.00,,SKC,0.00,VWS V13.00,2013-02-24 15:46:00,
2013-02-24 08:51:00,20.7,9.4,29.79,North,0,0.0,0.0,61,0.00,,SKC,0.00,VWS V13.00,2013-02-24 15:51:00,
2013-02-24 08:56:00,20.8,9.5,29.79,North,0,0.0,0.0,61,0.00,,SKC,0.00,VWS V13.00,2013-02-24 15:56:00,
2013-02-24 09:01:00,21.0,9.7,29.79,North,0,0.0,0.0,61,0.00,,SKC,0.00,VWS V13.00,2013-02-24 16:01:00,
2013-02-24 09:06:00,21.2,9.9,29.79,North,0,0.0,0.0,61,0.00,,SKC,0.00,VWS V13.00,2013-02-24 16:06:00,
2013-02-24 09:11:00,21.2,9.9,29.79,North,0,0.0,0.0,61,0.00,,SKC,0.00,VWS V13.00,2013-02-24 16:11:00,
2013-02-24 09:16:00,21.2,9.9,29.82,North,0,0.0,0.0,61,0.00,,SKC,0.00,VWS V13.00,2013-02-24 16:16:00,
2013-02-24 09:21:00,21.6,9.8,29.82,North,0,0.0,0.0,60,0.00,,SKC,0.00,VWS V13.00,2013-02-24 16:21:00,
2013-02-24 09:26:00,21.7,10.0,29.82,North,0,0.0,0.0,60,0.00,,SKC,0.00,VWS V13.00,2013-02-24 16:26:00,
2013-02-24 09:31:00,21.9,9.8,29.82,North,0,0.0,0.0,59,0.00,,SKC,0.00,VWS V13.00,2013-02-24 16:31:00,
2013-02-24 09:36:00,22.5,9.9,29.82,North,0,0.0,0.0,58,0.00,,SKC,0.00,VWS V13.00,2013-02-24 16:36:00,
2013-02-24 09:41:00,22.8,9.9,29.82,North,0,0.0,0.0,57,0.00,,SKC,0.00,VWS V13.00,2013-02-24 16:41:00,
2013-02-24 09:46:00,23.2,9.8,29.82,North,0,0.0,0.0,56,0.00,,SKC,0.00,VWS V13.00,2013-02-24 16:46:00,
2013-02-24 09:52:00,23.7,9.9,29.82,North,0,0.0,0.0,55,0.00,,SKC,0.00,VWS V13.00,2013-02-24 16:52:00,
2013-02-24 09:57:00,24.3,10.0,29.82,North,0,0.0,0.0,54,0.00,,SKC,0.00,VWS V13.00,2013-02-24 16:57:00,
2013-02-24 10:02:00,24.3,9.6,29.82,North,0,0.0,0.0,53,0.00,,SKC,0.00,VWS V13.00,2013-02-24 17:02:00,
2013-02-24 10:07:00,24.4,9.8,29.82,North,0,0.0,0.0,53,0.00,,SKC,0.00,VWS V13.00,2013-02-24 17:07:00,
2013-02-24 10:12:00,24.1,9.0,29.82,North,0,0.0,0.0,52,0.00,,SKC,0.00,VWS V13.00,2013-02-24 17:12:00,
2013-02-24 10:17:00,23.9,8.9,29.82,North,0,0.0,0.0,52,0.00,,SKC,0.00,VWS V13.00,2013-02-24 17:17:00,
2013-02-24 10:22:00,24.3,9.2,29.82,North,0,0.0,0.0,52,0.00,,SKC,0.00,VWS V13.00,2013-02-24 17:22:00,
2013-02-24 10:27:00,24.4,8.0,29.82,North,0,0.0,0.0,49,0.00,,SKC,0.00,VWS V13.00,2013-02-24 17:27:00,
2013-02-24 10:32:00,24.6,8.6,29.82,North,0,0.0,0.0,50,0.00,,SKC,0.00,VWS V13.00,2013-02-24 17:32:00,
2013-02-24 10:37:00,24.4,8.0,29.82,North,0,0.0,0.0,49,0.00,,SKC,0.00,VWS V13.00,2013-02-24 17:37:00,
2013-02-24 10:42:00,24.6,9.1,29.82,North,0,0.0,0.0,51,0.00,,SKC,0.00,VWS V13.00,2013-02-24 17:42:00,
2013-02-24 10:47:00,24.3,8.3,29.82,North,0,0.0,0.0,50,0.00,,SKC,0.00,VWS V13.00,2013-02-24 17:47:00,
2013-02-24 10:52:00,24.3,8.8,29.82,North,0,0.0,0.0,51,0.00,,SKC,0.00,VWS V13.00,2013-02-24 17:52:00,
2013-02-24 10:57:00,24.3,8.8,29.82,North,0,0.0,0.0,51,0.00,,SKC,0.00,VWS V13.00,2013-02-24 17:57:00,
2013-02-24 11:02:00,24.3,8.3,29.82,North,0,0.0,0.0,50,0.00,,SKC,0.00,VWS V13.00,2013-02-24 18:02:00,
2013-02-24 11:07:00,24.3,8.8,29.82,North,0,0.0,0.0,51,0.00,,SKC,0.00,VWS V13.00,2013-02-24 18:07:00,
2013-02-24 11:12:00,24.4,9.4,29.85,North,0,0.0,0.0,52,0.00,,SKC,0.00,VWS V13.00,2013-02-24 18:12:00,
2013-02-24 11:17:00,24.6,9.5,29.85,North,0,0.0,0.0,52,0.00,,SKC,0.00,VWS V13.00,2013-02-24 18:17:00,
2013-02-24 11:22:00,24.6,9.5,29.85,North,0,0.0,0.0,52,0.00,,SKC,0.00,VWS V13.00,2013-02-24 18:22:00,
2013-02-24 11:28:00,24.4,8.9,29.85,North,0,0.0,0.0,51,0.00,,SKC,0.00,VWS V13.00,2013-02-24 18:28:00,
2013-02-24 11:33:00,24.3,7.9,29.85,North,0,0.0,0.0,49,0.00,,SKC,0.00,VWS V13.00,2013-02-24 18:33:00,
2013-02-24 11:38:00,23.7,6.4,29.85,North,0,0.0,0.0,47,0.00,,SKC,0.00,VWS V13.00,2013-02-24 18:38:00,
2013-02-24 11:44:00,23.5,6.8,29.85,North,0,0.0,0.0,48,0.00,,SKC,0.00,VWS V13.00,2013-02-24 18:44:00,
2013-02-24 11:49:00,23.9,7.5,29.85,North,0,0.0,0.0,49,0.00,,SKC,0.00,VWS V13.00,2013-02-24 18:49:00,
2013-02-24 11:54:00,24.1,7.7,29.85,North,0,0.0,0.0,49,0.00,,SKC,0.00,VWS V13.00,2013-02-24 18:54:00,
2013-02-24 12:00:00,24.4,8.0,29.85,North,0,0.0,0.0,49,0.00,,SKC,0.00,VWS V13.00,2013-02-24 19:00:00,
2013-02-24 12:05:00,24.8,8.8,29.85,North,0,0.0,0.0,50,0.00,,SKC,0.00,VWS V13.00,2013-02-24 19:05:00,
2013-02-24 12:10:00,24.8,8.4,29.85,North,0,0.0,0.0,49,0.00,,SKC,0.00,VWS V13.00,2013-02-24 19:10:00,
2013-02-24 12:15:00,25.2,7.8,29.85,North,0,0.0,0.0,47,0.00,,SKC,0.00,VWS V13.00,2013-02-24 19:15:00,
2013-02-24 12:20:00,25.2,8.2,29.85,North,0,0.0,0.0,48,0.00,,SKC,0.00,VWS V13.00,2013-02-24 19:20:00,
2013-02-24 12:25:00,25.5,8.6,29.85,North,0,0.0,0.0,48,0.00,,SKC,0.00,VWS V13.00,2013-02-24 19:25:00,
2013-02-24 12:30:00,25.7,8.3,29.85,North,0,0.0,0.0,47,0.00,,SKC,0.00,VWS V13.00,2013-02-24 19:30:00,
2013-02-24 12:35:00,25.5,7.6,29.85,North,0,0.0,0.0,46,0.00,,SKC,0.00,VWS V13.00,2013-02-24 19:35:00,
2013-02-24 12:40:00,25.5,8.1,29.85,North,0,0.0,0.0,47,0.00,,SKC,0.00,VWS V13.00,2013-02-24 19:40:00,
2013-02-24 12:45:00,25.2,7.3,29.85,North,0,0.0,0.0,46,0.00,,SKC,0.00,VWS V13.00,2013-02-24 19:45:00,
2013-02-24 12:50:00,25.0,8.1,29.85,North,0,0.0,0.0,48,0.00,,SKC,0.00,VWS V13.00,2013-02-24 19:50:00,
2013-02-24 12:55:00,25.0,8.1,29.85,North,0,0.0,0.0,48,0.00,,SKC,0.00,VWS V13.00,2013-02-24 19:55:00,
2013-02-24 13:00:00,25.0,7.6,29.85,North,0,0.0,0.0,47,0.00,,SKC,0.00,VWS V13.00,2013-02-24 20:00:00,
2013-02-24 13:05:00,25.0,8.1,29.85,North,0,0.0,0.0,48,0.00,,SKC,0.00,VWS V13.00,2013-02-24 20:05:00,
2013-02-24 13:10:00,25.2,8.2,29.85,North,0,0.0,0.0,48,0.00,,SKC,0.00,VWS V13.00,2013-02-24 20:10:00,
2013-02-24 13:15:00,25.7,8.7,29.85,North,0,0.0,0.0,48,0.00,,SKC,0.00,VWS V13.00,2013-02-24 20:15:00,
2013-02-24 13:20:00,26.1,9.1,29.85,North,0,0.0,0.0,48,0.00,,SKC,0.00,VWS V13.00,2013-02-24 20:20:00,
2013-02-24 13:25:00,27.1,11.9,29.85,North,0,0.0,0.0,52,0.00,,SKC,0.00,VWS V13.00,2013-02-24 20:25:00,
2013-02-24 13:30:00,27.9,12.5,29.85,North,0,0.0,0.0,52,0.00,,SKC,0.00,VWS V13.00,2013-02-24 20:30:00,
2013-02-24 13:35:00,28.2,12.4,29.85,North,0,0.0,0.0,51,0.00,,SKC,0.00,VWS V13.00,2013-02-24 20:35:00,
2013-02-24 13:40:00,28.4,11.2,29.85,North,0,0.0,0.0,48,0.00,,SKC,0.00,VWS V13.00,2013-02-24 20:40:00,
2013-02-24 13:46:00,28.6,11.9,29.85,North,0,0.0,0.0,49,0.00,,SKC,0.00,VWS V13.00,2013-02-24 20:46:00,
2013-02-24 13:51:00,28.8,11.6,29.85,North,0,0.0,0.0,48,0.00,,SKC,0.00,VWS V13.00,2013-02-24 20:51:00,
2013-02-24 13:56:00,28.9,11.7,29.85,North,0,0.0,0.0,48,0.00,,SKC,0.00,VWS V13.00,2013-02-24 20:56:00,
2013-02-24 14:01:00,28.9,12.6,29.85,North,0,0.0,0.0,50,0.00,,SKC,0.00,VWS V13.00,2013-02-24 21:01:00,
2013-02-24 14:06:00,28.9,13.1,29.85,North,0,0.0,0.0,51,0.00,,SKC,0.00,VWS V13.00,2013-02-24 21:06:00,
2013-02-24 14:11:00,28.8,12.9,29.85,North,0,0.0,0.0,51,0.00,,SKC,0.00,VWS V13.00,2013-02-24 21:11:00,
2013-02-24 14:16:00,28.9,13.5,29.85,North,0,0.0,0.0,52,0.00,,SKC,0.00,VWS V13.00,2013-02-24 21:16:00,
2013-02-24 14:21:00,28.9,13.1,29.85,North,0,0.0,0.0,51,0.00,,SKC,0.00,VWS V13.00,2013-02-24 21:21:00,
2013-02-24 14:26:00,28.9,13.1,29.85,North,0,0.0,0.0,51,0.00,,SKC,0.00,VWS V13.00,2013-02-24 21:26:00,
2013-02-24 14:31:00,28.9,12.6,29.85,North,0,0.0,0.0,50,0.00,,SKC,0.00,VWS V13.00,2013-02-24 21:31:00,
2013-02-24 14:36:00,28.8,12.9,29.85,North,0,0.0,0.0,51,0.00,,SKC,0.00,VWS V13.00,2013-02-24 21:36:00,
2013-02-24 14:41:00,28.6,12.8,29.85,North,0,0.0,0.0,51,0.00,,SKC,0.00,VWS V13.00,2013-02-24 21:41:00,
2013-02-24 14:46:00,27.7,11.5,29.85,North,0,0.0,0.0,50,0.00,,SKC,0.00,VWS V13.00,2013-02-24 21:46:00,
2013-02-24 14:51:00,26.8,11.5,29.85,North,0,0.0,0.0,52,0.00,,SKC,0.00,VWS V13.00,2013-02-24 21:51:00,
2013-02-24 14:56:00,26.1,10.9,29.85,North,0,0.0,0.0,52,0.00,,SKC,0.00,VWS V13.00,2013-02-24 21:56:00,
2013-02-24 15:01:00,25.5,10.8,29.85,North,0,0.0,0.0,53,0.00,,SKC,0.00,VWS V13.00,2013-02-24 22:01:00,
2013-02-24 15:06:00,24.6,10.8,29.85,North,0,0.0,0.0,55,0.00,,SKC,0.00,VWS V13.00,2013-02-24 22:06:00,
2013-02-24 15:11:00,24.1,10.3,29.85,North,0,0.0,0.0,55,0.00,,SKC,0.00,VWS V13.00,2013-02-24 22:11:00,
2013-02-24 15:16:00,23.7,10.3,29.85,North,0,0.0,0.0,56,0.00,,SKC,0.00,VWS V13.00,2013-02-24 22:16:00,
2013-02-24 15:22:00,23.5,10.6,29.85,North,0,0.0,0.0,57,0.00,,SKC,0.00,VWS V13.00,2013-02-24 22:22:00,
2013-02-24 15:27:00,23.4,10.4,29.85,North,0,0.0,0.0,57,0.00,,SKC,0.00,VWS V13.00,2013-02-24 22:27:00,
2013-02-24 15:32:00,23.2,10.2,29.85,North,0,0.0,0.0,57,0.00,,SKC,0.00,VWS V13.00,2013-02-24 22:32:00,
2013-02-24 15:37:00,23.2,10.2,29.85,North,0,0.0,0.0,57,0.00,,SKC,0.00,VWS V13.00,2013-02-24 22:37:00,
2013-02-24 15:42:00,23.0,10.4,29.88,North,0,0.0,0.0,58,0.00,,SKC,0.00,VWS V13.00,2013-02-24 22:42:00,
2013-02-24 15:47:00,22.8,10.3,29.88,North,0,0.0,0.0,58,0.00,,SKC,0.00,VWS V13.00,2013-02-24 22:47:00,
2013-02-24 15:52:00,22.8,10.3,29.88,North,0,0.0,0.0,58,0.00,,SKC,0.00,VWS V13.00,2013-02-24 22:52:00,
2013-02-24 15:57:00,22.8,10.3,29.88,North,0,0.0,0.0,58,0.00,,SKC,0.00,VWS V13.00,2013-02-24 22:57:00,
2013-02-24 16:02:00,23.2,10.6,29.88,North,0,0.0,0.0,58,0.00,,SKC,0.00,VWS V13.00,2013-02-24 23:02:00,
2013-02-24 16:07:00,23.2,10.6,29.88,North,0,0.0,0.0,58,0.00,,SKC,0.00,VWS V13.00,2013-02-24 23:07:00,
2013-02-24 16:12:00,23.0,10.4,29.88,North,0,0.0,0.0,58,0.00,,SKC,0.00,VWS V13.00,2013-02-24 23:12:00,
2013-02-24 16:17:00,22.6,9.7,29.88,North,0,0.0,0.0,57,0.00,,SKC,0.00,VWS V13.00,2013-02-24 23:17:00,
2013-02-24 16:22:00,22.3,9.4,29.88,North,0,0.0,0.0,57,0.00,,SKC,0.00,VWS V13.00,2013-02-24 23:22:00,
2013-02-24 16:27:00,22.1,9.2,29.88,North,0,0.0,0.0,57,0.00,,SKC,0.00,VWS V13.00,2013-02-24 23:27:00,
2013-02-24 16:32:00,22.3,9.4,29.88,North,0,0.0,0.0,57,0.00,,SKC,0.00,VWS V13.00,2013-02-24 23:32:00,
2013-02-24 16:37:00,22.3,9.4,29.88,North,0,0.0,0.0,57,0.00,,SKC,0.00,VWS V13.00,2013-02-24 23:37:00,
2013-02-24 16:42:00,22.1,9.2,29.88,North,0,0.0,0.0,57,0.00,,SKC,0.00,VWS V13.00,2013-02-24 23:42:00,
2013-02-24 16:47:00,21.9,9.0,29.88,North,0,0.0,0.0,57,0.00,,SKC,0.00,VWS V13.00,2013-02-24 23:47:00,
2013-02-24 16:52:00,21.9,9.0,29.88,North,0,0.0,0.0,57,0.00,,SKC,0.00,VWS V13.00,2013-02-24 23:52:00,
2013-02-24 16:57:00,21.7,8.9,29.88,North,0,0.0,0.0,57,0.00,,SKC,0.00,VWS V13.00,2013-02-24 23:57:00,
2013-02-24 17:02:00,21.6,9.1,29.88,North,0,0.0,0.0,58,0.00,,SKC,0.00,VWS V13.00,2013-02-25 00:02:00,
2013-02-24 17:07:00,21.4,8.9,29.88,North,0,0.0,0.0,58,0.00,,SKC,0.00,VWS V13.00,2013-02-25 00:07:00,
2013-02-24 17:12:00,21.4,9.3,29.88,North,0,0.0,0.0,59,0.00,,SKC,0.00,VWS V13.00,2013-02-25 00:12:00,
2013-02-24 17:17:00,21.4,9.3,29.88,North,0,0.0,0.0,59,0.00,,SKC,0.00,VWS V13.00,2013-02-25 00:17:00,
2013-02-24 17:22:00,21.2,9.1,29.88,North,0,0.0,0.0,59,0.00,,SKC,0.00,VWS V13.00,2013-02-25 00:22:00,
2013-02-24 17:28:00,21.2,9.5,29.91,North,0,0.0,0.0,60,0.00,,SKC,0.00,VWS V13.00,2013-02-25 00:28:00,
2013-02-24 17:33:00,21.2,9.5,29.91,North,0,0.0,0.0,60,0.00,,SKC,0.00,VWS V13.00,2013-02-25 00:33:00,
2013-02-24 17:38:00,21.0,9.3,29.91,North,0,0.0,0.0,60,0.00,,SKC,0.00,VWS V13.00,2013-02-25 00:38:00,
2013-02-24 17:43:00,21.2,9.9,29.91,North,0,0.0,0.0,61,0.00,,SKC,0.00,VWS V13.00,2013-02-25 00:43:00,
2013-02-24 17:48:00,21.0,9.7,29.91,North,0,0.0,0.0,61,0.00,,SKC,0.00,VWS V13.00,2013-02-25 00:48:00,
2013-02-24 17:53:00,21.0,9.7,29.91,North,0,0.0,0.0,61,0.00,,SKC,0.00,VWS V13.00,2013-02-25 00:53:00,
2013-02-24 17:58:00,21.0,9.3,29.91,North,0,0.0,0.0,60,0.00,,SKC,0.00,VWS V13.00,2013-02-25 00:58:00,
2013-02-24 18:03:00,20.8,9.2,29.91,North,0,0.0,0.0,60,0.00,,SKC,0.00,VWS V13.00,2013-02-25 01:03:00,
2013-02-24 18:08:00,20.7,9.0,29.91,North,0,0.0,0.0,60,0.00,,SKC,0.00,VWS V13.00,2013-02-25 01:08:00,
2013-02-24 18:13:00,20.3,9.0,29.91,North,0,0.0,0.0,61,0.00,,SKC,0.00,VWS V13.00,2013-02-25 01:13:00,
2013-02-24 18:18:00,20.3,9.0,29.91,North,0,0.0,0.0,61,0.00,,SKC,0.00,VWS V13.00,2013-02-25 01:18:00,
2013-02-24 18:23:00,19.9,9.0,29.91,North,0,0.0,0.0,62,0.00,,SKC,0.00,VWS V13.00,2013-02-25 01:23:00,
2013-02-24 18:28:00,19.8,8.9,29.91,North,0,0.0,0.0,62,0.00,,SKC,0.00,VWS V13.00,2013-02-25 01:28:00,
2013-02-24 18:33:00,19.6,8.7,29.91,North,0,0.0,0.0,62,0.00,,SKC,0.00,VWS V13.00,2013-02-25 01:33:00,
2013-02-24 18:38:00,19.6,9.1,29.91,North,0,0.0,0.0,63,0.00,,SKC,0.00,VWS V13.00,2013-02-25 01:38:00,
2013-02-24 18:43:00,19.6,9.4,29.91,North,0,0.0,0.0,64,0.00,,SKC,0.00,VWS V13.00,2013-02-25 01:43:00,
2013-02-24 18:48:00,19.6,9.4,29.91,North,0,0.0,0.0,64,0.00,,SKC,0.00,VWS V13.00,2013-02-25 01:48:00,
2013-02-24 18:53:00,19.6,9.4,29.91,North,0,0.0,0.0,64,0.00,,SKC,0.00,VWS V13.00,2013-02-25 01:53:00,
2013-02-24 18:58:00,19.8,9.9,29.91,North,0,0.0,0.0,65,0.00,,SKC,0.00,VWS V13.00,2013-02-25 01:58:00,
2013-02-24 19:03:00,19.6,9.4,29.91,North,0,0.0,0.0,64,0.00,,SKC,0.00,VWS V13.00,2013-02-25 02:03:00,
2013-02-24 19:08:00,19.6,9.4,29.91,North,0,0.0,0.0,64,0.00,,SKC,0.00,VWS V13.00,2013-02-25 02:08:00,
2013-02-24 19:13:00,19.4,9.2,29.91,North,0,0.0,0.0,64,0.00,,SKC,0.00,VWS V13.00,2013-02-25 02:13:00,
2013-02-24 19:18:00,18.7,8.2,29.91,North,0,0.0,0.0,63,0.00,,SKC,0.00,VWS V13.00,2013-02-25 02:18:00,
2013-02-24 19:23:00,18.5,8.0,29.91,North,0,0.0,0.0,63,0.00,,SKC,0.00,VWS V13.00,2013-02-25 02:23:00,
2013-02-24 19:28:00,18.3,8.2,29.91,North,0,0.0,0.0,64,0.00,,SKC,0.00,VWS V13.00,2013-02-25 02:28:00,
2013-02-24 19:34:00,18.1,7.7,29.91,North,0,0.0,0.0,63,0.00,,SKC,0.00,VWS V13.00,2013-02-25 02:34:00,
2013-02-24 19:39:00,17.8,7.7,29.91,North,0,0.0,0.0,64,0.00,,SKC,0.00,VWS V13.00,2013-02-25 02:39:00,
2013-02-24 19:44:00,17.4,7.3,29.91,North,0,0.0,0.0,64,0.00,,SKC,0.00,VWS V13.00,2013-02-25 02:44:00,
2013-02-24 19:49:00,17.1,6.7,29.91,North,0,0.0,0.0,63,0.00,,SKC,0.00,VWS V13.00,2013-02-25 02:49:00,
2013-02-24 19:54:00,16.7,6.3,29.91,North,0,0.0,0.0,63,0.00,,SKC,0.00,VWS V13.00,2013-02-25 02:54:00,
2013-02-24 19:59:00,16.5,6.1,29.93,North,0,0.0,0.0,63,0.00,,SKC,0.00,VWS V13.00,2013-02-25 02:59:00,
2013-02-24 20:04:00,16.5,6.5,29.93,North,0,0.0,0.0,64,0.00,,SKC,0.00,VWS V13.00,2013-02-25 03:04:00,
2013-02-24 20:09:00,16.5,6.5,29.93,North,0,0.0,0.0,64,0.00,,SKC,0.00,VWS V13.00,2013-02-25 03:09:00,
2013-02-24 20:14:00,16.7,7.0,29.93,North,0,0.0,0.0,65,0.00,,SKC,0.00,VWS V13.00,2013-02-25 03:14:00,
2013-02-24 20:19:00,16.5,6.8,29.93,North,0,0.0,0.0,65,0.00,,SKC,0.00,VWS V13.00,2013-02-25 03:19:00,
2013-02-24 20:24:00,16.2,6.1,29.93,North,0,0.0,0.0,64,0.00,,SKC,0.00,VWS V13.00,2013-02-25 03:24:00,
2013-02-24 20:29:00,15.8,5.8,29.93,North,0,0.0,0.0,64,0.00,,SKC,0.00,VWS V13.00,2013-02-25 03:29:00,
2013-02-24 20:34:00,15.6,5.6,29.93,North,0,0.0,0.0,64,0.00,,SKC,0.00,VWS V13.00,2013-02-25 03:34:00,
2013-02-24 20:39:00,15.8,6.1,29.93,North,0,0.0,0.0,65,0.00,,SKC,0.00,VWS V13.00,2013-02-25 03:39:00,
2013-02-24 20:44:00,15.8,5.8,29.93,North,0,0.0,0.0,64,0.00,,SKC,0.00,VWS V13.00,2013-02-25 03:44:00,
2013-02-24 20:49:00,16.0,6.0,29.93,North,0,0.0,0.0,64,0.00,,SKC,0.00,VWS V13.00,2013-02-25 03:49:00,
2013-02-24 20:54:00,16.0,6.0,29.93,North,0,0.0,0.0,64,0.00,,SKC,0.00,VWS V13.00,2013-02-25 03:54:00,
2013-02-24 20:59:00,16.2,6.1,29.93,North,0,0.0,0.0,64,0.00,,SKC,0.00,VWS V13.00,2013-02-25 03:59:00,
2013-02-24 21:05:00,16.2,5.8,29.93,North,0,0.0,0.0,63,0.00,,SKC,0.00,VWS V13.00,2013-02-25 04:05:00,
2013-02-24 21:10:00,15.8,5.4,29.93,North,0,0.0,0.0,63,0.00,,SKC,0.00,VWS V13.00,2013-02-25 04:10:00,
2013-02-24 21:15:00,15.4,4.8,29.93,North,0,0.0,0.0,62,0.00,,SKC,0.00,VWS V13.00,2013-02-25 04:15:00,
2013-02-24 21:20:00,15.1,4.4,29.93,North,0,0.0,0.0,62,0.00,,SKC,0.00,VWS V13.00,2013-02-25 04:20:00,
2013-02-24 21:25:00,14.5,3.9,29.93,North,0,0.0,0.0,62,0.00,,SKC,0.00,VWS V13.00,2013-02-25 04:25:00,
2013-02-24 21:30:00,14.4,3.7,29.93,North,0,0.0,0.0,62,0.00,,SKC,0.00,VWS V13.00,2013-02-25 04:30:00,
2013-02-24 21:35:00,14.2,3.6,29.93,North,0,0.0,0.0,62,0.00,,SKC,0.00,VWS V13.00,2013-02-25 04:35:00,
2013-02-24 21:40:00,14.0,3.7,29.93,North,0,0.0,0.0,63,0.00,,SKC,0.00,VWS V13.00,2013-02-25 04:40:00,
2013-02-24 21:45:00,14.0,4.1,29.93,North,0,0.0,0.0,64,0.00,,SKC,0.00,VWS V13.00,2013-02-25 04:45:00,
2013-02-24 21:50:00,13.8,3.9,29.93,North,0,0.0,0.0,64,0.00,,SKC,0.00,VWS V13.00,2013-02-25 04:50:00,
2013-02-24 21:55:00,13.6,3.7,29.93,North,0,0.0,0.0,64,0.00,,SKC,0.00,VWS V13.00,2013-02-25 04:55:00,
2013-02-24 22:00:00,13.5,3.6,29.93,North,0,0.0,0.0,64,0.00,,SKC,0.00,VWS V13.00,2013-02-25 05:00:00,
2013-02-24 22:01:00,13.5,3.6,29.93,North,0,0.0,0.0,64,0.00,,SKC,0.00,VWS V13.00,2013-02-25 05:01:00,
2013-02-24 22:06:00,13.3,3.4,29.93,North,0,0.0,0.0,64,0.00,,SKC,0.00,VWS V13.00,2013-02-25 05:06:00,
2013-02-24 22:11:00,13.3,3.4,29.93,North,0,0.0,0.0,64,0.00,,SKC,0.00,VWS V13.00,2013-02-25 05:11:00,
2013-02-24 22:16:00,13.5,3.6,29.93,North,0,0.0,0.0,64,0.00,,SKC,0.00,VWS V13.00,2013-02-25 05:16:00,
2013-02-24 22:21:00,13.6,3.7,29.93,North,0,0.0,0.0,64,0.00,,SKC,0.00,VWS V13.00,2013-02-25 05:21:00,
2013-02-24 22:26:00,13.6,3.7,29.93,North,0,0.0,0.0,64,0.00,,SKC,0.00,VWS V13.00,2013-02-25 05:26:00,
2013-02-24 22:31:00,13.8,3.9,29.93,North,0,0.0,0.0,64,0.00,,SKC,0.00,VWS V13.00,2013-02-25 05:31:00,
2013-02-24 22:36:00,13.8,3.9,29.93,North,0,0.0,0.0,64,0.00,,SKC,0.00,VWS V13.00,2013-02-25 05:36:00,
2013-02-24 22:41:00,14.0,4.1,29.93,North,0,0.0,0.0,64,0.00,,SKC,0.00,VWS V13.00,2013-02-25 05:41:00,
2013-02-24 22:46:00,13.8,3.9,29.93,North,0,0.0,0.0,64,0.00,,SKC,0.00,VWS V13.00,2013-02-25 05:46:00,
2013-02-24 22:51:00,13.8,3.9,29.93,North,0,0.0,0.0,64,0.00,,SKC,0.00,VWS V13.00,2013-02-25 05:51:00,
2013-02-24 22:56:00,13.5,3.6,29.93,North,0,0.0,0.0,64,0.00,,SKC,0.00,VWS V13.00,2013-02-25 05:56:00,
2013-02-24 23:01:00,13.3,3.4,29.93,North,0,0.0,0.0,64,0.00,,SKC,0.00,VWS V13.00,2013-02-25 06:01:00,
2013-02-24 23:06:00,13.3,3.4,29.93,North,0,0.0,0.0,64,0.00,,SKC,0.00,VWS V13.00,2013-02-25 06:06:00,
2013-02-24 23:11:00,12.9,3.0,29.93,North,0,0.0,0.0,64,0.00,,SKC,0.00,VWS V13.00,2013-02-25 06:11:00,
2013-02-24 23:16:00,12.9,3.0,29.93,North,0,0.0,0.0,64,0.00,,SKC,0.00,VWS V13.00,2013-02-25 06:16:00,
2013-02-24 23:22:00,12.6,2.7,29.93,North,0,0.0,0.0,64,0.00,,SKC,0.00,VWS V13.00,2013-02-25 06:22:00,
2013-02-24 23:27:00,12.2,2.4,29.93,North,0,0.0,0.0,64,0.00,,SKC,0.00,VWS V13.00,2013-02-25 06:27:00,
2013-02-24 23:32:00,11.7,1.9,29.93,North,0,0.0,0.0,64,0.00,,SKC,0.00,VWS V13.00,2013-02-25 06:32:00,
2013-02-24 23:37:00,11.3,1.5,29.93,North,0,0.0,0.0,64,0.00,,SKC,0.00,VWS V13.00,2013-02-25 06:37:00,
2013-02-24 23:42:00,11.3,1.5,29.93,North,0,0.0,0.0,64,0.00,,SKC,0.00,VWS V13.00,2013-02-25 06:42:00,
2013-02-24 23:47:00,10.9,1.2,29.93,North,0,0.0,0.0,64,0.00,,SKC,0.00,VWS V13.00,2013-02-25 06:47:00,
2013-02-24 23:52:00,10.8,1.0,29.93,North,0,0.0,0.0,64,0.00,,SKC,0.00,VWS V13.00,2013-02-25 06:52:00,
2013-02-24 23:57:00,10.6,0.8,29.93,North,0,0.0,0.0,64,0.00,,SKC,0.00,VWS V13.00,2013-02-25 06:57:00,